Terminal Aerodrome Forecast
Issued by NWS

Home | Current Version | Previous Version | Text Only | Print | Product List | Glossary On
Versions: 1 2 3 4 5 6 7 8 9 10 11 12 13
000
FTUS42 KMLB 142300
TAFSFB
TAF
KSFB 142336Z 1500/1524 11009KT P6SM VCSH BKN040 BKN300
     FM150400 VRB02KT P6SM FEW020 FEW250
     FM151400 19003KT P6SM FEW040 SCT250
     FM152000 11004KT P6SM VCTS SCT035CB=

USA.gov is the U.S. government's official web portal to all federal, state and local government web resources and services.